Fairbanks International, AK

11:19 AM AKDT on August 30, 2014 (GMT -0800)
Nenana Municipal | Change Station
CLOSE
Current Station
Airport
Location: Nenana,
Elevation: 361 ft
Nearby Weather Stations
Active Advisory: Frost Advisory Active Notice: Record Report

Elev 361 ft 64.55 °N, 149.07 °W | Updated 26 minutes ago

Clear
Clear
45 °F
Feels Like 44 °F
N
4
Wind Variable Wind from Variable

Today
High -- | Low -- °F
--% Chance of Precip.
Yesterday
High -- | Low -- °F
Precip. -- in
6:25 AM 9:15 PM
Waxing Crescent, 24% visible
Pressure 29.73 in
Visibility 10.0 miles
Clouds Clear
Windchill 44 °F
Dew Point 33 °F
Humidity 63%
Rainfall 0.00 in
Snow Depth Not available.
UV 2 out of 12
Pollen Not available.
Air Quality Not available.
Flu Activity Not available.
METAR PANN 301853Z AUTO VRB03KT 10SM CLR 07/01 A2971 RMK AO2 SLP068 T00720006 TSNO

More Conditions Fewer Conditions

Pressure 29.73 in
Visibility 10.0 miles
Clouds Clear
Windchill 44 °F
Dew Point 33 °F
Humidity 63%
Rainfall 0.00 in
Snow Depth Not available.
UV 2 out of 12
Pollen Not available.
Air Quality Not available.
Flu Activity Not available.
METAR PANN 301853Z AUTO VRB03KT 10SM CLR 07/01 A2971 RMK AO2 SLP068 T00720006 TSNO

More Conditions Fewer Conditions

10-Day Weather Forecast

Almanac

Astronomy

Aug. 30, 2014 Rise Set
Actual Time 6:25 AM AKDT 9:15 PM AKDT
Civil Twilight 5:29 AM AKDT 10:11 PM AKDT
Nautical Twilight 4:08 AM AKDT 11:30 PM AKDT
Astronomical Twilight 2:24 AM AKDT 1:19 AM AKDT
Moon 1:26 PM AKDT 9:48 PM AKDT
Length of Visible Light 16h 41m
Length of Day
14h 50m
Tomorrow will be 6m 44s shorter.
Waxing Crescent, 24% of the Moon is Illuminated
Today
Waxing Crescent
Sep 2
First Quarter
Sep 8
Full
Sep 15
Last Quarter
Sep 24
New

Today's Extremes

State Highs State Lows

Community

WunderPhotos

Upload Photos

1,748,596 photos uploaded!

WunderBlogs® & News

Nearby

Snow Depth

Station Depth Elevation
Little Chena Ridge 1 in 2000 ft
Munson Ridge 1 in 3100 ft
Monument Creek 0 in 1850 ft
Eagle Summit 0 in 3650 ft
Upper Chena 1 in 2850 ft

Earthquake Activity

City Distance Mag. Time & Date
No recent earthquake activity has been reported nearby.
Minimum magnitude displayed is 2.5.

Coastal Water Temperatures

Place Temperature
No Stations Reporting

Nearby Weather Stations